PWSweather.com
Personal Weather Stations
Station Observations
BRISTOL
HorfieldFilton, BristolGB BS7

HorfieldFiltonBristolGB BS7

Lat: 51.5, Lon: -2.576

Elevation: 272

Station Type: Davis VP2

http://www.martynhicks.co.uk/weather/data.php

Latest ConditionsUpdated 11:50:01 AM GMT Friday, Oct 31, 2014
Currently Today's Max Today's Min Today's Average
Temperature 70.5°F21.4°C 70.5°F21.4°C 58.4°F14.7°C 61.1°F16.2°C
Dew Point 56.4°F13.6°C 59.4°F15.2°C 56.4°F13.6°C 57.5°F14.2°C
Winds 8.6 mph S13.8 kmh S 9.6 mph SSE15.4 kmh SSE - 2.6 mph 4.2 kmh
Wind Gusts 20.0 mph32.2 kmh 20.0 mph32.2 kmh - -
Humidity 61% 94% 61% 88%
Pressure 29.95 in1014.2 mb 30.03 in1016.9 mb 29.95 in1014.2 mb -
Hour Temp Dew Point Humidity Winds Wind Gusts Pressure Precip Precip Rate Daily Precip Total
11:50 AM 70.5°F21.4°C 56.4°F13.6°C 61% 8.6 mph S13.8 kmh S 20.0 mph32.2 kmh 29.95 in1014.2 mb 0.00 in0.0 mm 0.00 in/hr0.0 mm/hr 0.00 in0.0 mm
11:40 AM 70.3°F21.3°C 56.7°F13.7°C 62% 5.3 mph S8.5 kmh S 8.0 mph12.9 kmh 29.95 in1014.2 mb 0.00 in0.0 mm 0.00 in/hr0.0 mm/hr 0.00 in0.0 mm
11:30 AM 69.7°F20.9°C 57.0°F13.9°C 64% 8.5 mph SSE13.7 kmh SSE 15.0 mph24.1 kmh 29.95 in1014.2 mb 0.00 in0.0 mm 0.00 in/hr0.0 mm/hr 0.00 in0.0 mm
11:20 AM 68.7°F20.4°C 56.9°F13.8°C 66% 9.6 mph SSE15.4 kmh SSE 15.0 mph24.1 kmh 29.95 in1014.2 mb 0.00 in0.0 mm 0.00 in/hr0.0 mm/hr 0.00 in0.0 mm
11:10 AM 68.4°F20.2°C 57.4°F14.1°C 68% 8.2 mph SSE13.2 kmh SSE 17.0 mph27.4 kmh 29.97 in1014.9 mb 0.00 in0.0 mm 0.00 in/hr0.0 mm/hr 0.00 in0.0 mm
11:00 AM 68.8°F20.4°C 57.8°F14.3°C 68% 6.3 mph SSW10.1 kmh SSW 17.0 mph27.4 kmh 29.97 in1014.9 mb 0.00 in0.0 mm 0.00 in/hr0.0 mm/hr 0.00 in0.0 mm
10:50 AM 69.2°F20.7°C 58.2°F14.6°C 68% 2.4 mph SW3.9 kmh SW 7.0 mph11.3 kmh 29.98 in1015.2 mb 0.00 in0.0 mm 0.00 in/hr0.0 mm/hr 0.00 in0.0 mm
10:40 AM 68.5°F20.3°C 58.7°F14.8°C 71% 2.3 mph S3.7 kmh S 4.0 mph6.4 kmh 29.98 in1015.2 mb 0.00 in0.0 mm 0.00 in/hr0.0 mm/hr 0.00 in0.0 mm
10:30 AM 68.2°F20.1°C 59.2°F15.1°C 73% 1.0 mph S1.6 kmh S 2.0 mph3.2 kmh 29.98 in1015.2 mb 0.00 in0.0 mm 0.00 in/hr0.0 mm/hr 0.00 in0.0 mm
10:20 AM 67.8°F19.9°C 58.9°F14.9°C 73% 2.8 mph S4.5 kmh S 5.0 mph8.0 kmh 29.98 in1015.2 mb 0.00 in0.0 mm 0.00 in/hr0.0 mm/hr 0.00 in0.0 mm
10:10 AM 67.6°F19.8°C 58.2°F14.6°C 72% 4.7 mph SSW7.6 kmh SSW 8.0 mph12.9 kmh 29.98 in1015.2 mb 0.00 in0.0 mm 0.00 in/hr0.0 mm/hr 0.00 in0.0 mm
10:00 AM 65.7°F18.7°C 59.4°F15.2°C 80% 3.0 mph S4.8 kmh S 7.0 mph11.3 kmh 29.98 in1015.2 mb 0.00 in0.0 mm 0.00 in/hr0.0 mm/hr 0.00 in0.0 mm
09:50 AM 64.4°F18.0°C 59.2°F15.1°C 83% 3.3 mph S5.3 kmh S 6.0 mph9.7 kmh 29.98 in1015.2 mb 0.00 in0.0 mm 0.00 in/hr0.0 mm/hr 0.00 in0.0 mm
09:40 AM 63.4°F17.4°C 58.5°F14.7°C 84% 4.0 mph ESE6.4 kmh ESE 8.0 mph12.9 kmh 29.98 in1015.2 mb 0.00 in0.0 mm 0.00 in/hr0.0 mm/hr 0.00 in0.0 mm
09:30 AM 62.5°F16.9°C 58.3°F14.6°C 86% 2.6 mph SE4.2 kmh SE 4.0 mph6.4 kmh 29.98 in1015.2 mb 0.00 in0.0 mm 0.00 in/hr0.0 mm/hr 0.00 in0.0 mm
09:20 AM 61.6°F16.4°C 58.0°F14.4°C 88% 0.7 mph SE1.1 kmh SE 3.0 mph4.8 kmh 29.98 in1015.2 mb 0.00 in0.0 mm 0.00 in/hr0.0 mm/hr 0.00 in0.0 mm
09:10 AM 61.3°F16.3°C 57.7°F14.3°C 88% 1.9 mph SE3.1 kmh SE 5.0 mph8.0 kmh 29.98 in1015.2 mb 0.00 in0.0 mm 0.00 in/hr0.0 mm/hr 0.00 in0.0 mm
09:00 AM 61.2°F16.2°C 57.6°F14.2°C 88% 2.6 mph SE4.2 kmh SE 6.0 mph9.7 kmh 29.98 in1015.2 mb 0.00 in0.0 mm 0.00 in/hr0.0 mm/hr 0.00 in0.0 mm
08:50 AM 60.8°F16.0°C 57.6°F14.2°C 89% 2.8 mph SE4.5 kmh SE 6.0 mph9.7 kmh 29.99 in1015.6 mb 0.00 in0.0 mm 0.00 in/hr0.0 mm/hr 0.00 in0.0 mm
08:40 AM 60.4°F15.8°C 57.5°F14.2°C 90% 1.9 mph SE3.1 kmh SE 8.0 mph12.9 kmh 29.99 in1015.6 mb 0.00 in0.0 mm 0.00 in/hr0.0 mm/hr 0.00 in0.0 mm
08:30 AM 59.9°F15.5°C 57.2°F14.0°C 91% 3.9 mph SE6.3 kmh SE 8.0 mph12.9 kmh 29.99 in1015.6 mb 0.00 in0.0 mm 0.00 in/hr0.0 mm/hr 0.00 in0.0 mm
08:20 AM 59.3°F15.2°C 57.0°F13.9°C 92% 5.0 mph SE8.0 kmh SE 9.0 mph14.5 kmh 29.99 in1015.6 mb 0.00 in0.0 mm 0.00 in/hr0.0 mm/hr 0.00 in0.0 mm
08:10 AM 59.1°F15.1°C 56.7°F13.7°C 92% 2.8 mph SSE4.5 kmh SSE 7.0 mph11.3 kmh 29.99 in1015.6 mb 0.00 in0.0 mm 0.00 in/hr0.0 mm/hr 0.00 in0.0 mm
08:00 AM 58.8°F14.9°C 56.5°F13.6°C 92% 1.3 mph SE2.1 kmh SE 6.0 mph9.7 kmh 29.99 in1015.6 mb 0.00 in0.0 mm 0.00 in/hr0.0 mm/hr 0.00 in0.0 mm
07:50 AM 58.6°F14.8°C 56.6°F13.7°C 93% 3.6 mph SSE5.8 kmh SSE 5.0 mph8.0 kmh 29.99 in1015.6 mb 0.00 in0.0 mm 0.00 in/hr0.0 mm/hr 0.00 in0.0 mm
07:40 AM 58.5°F14.7°C 56.5°F13.6°C 93% 3.0 mph SE4.8 kmh SE 3.0 mph4.8 kmh 29.99 in1015.6 mb 0.00 in0.0 mm 0.00 in/hr0.0 mm/hr 0.00 in0.0 mm
07:30 AM 58.4°F14.7°C 56.4°F13.6°C 93% 1.8 mph SE2.9 kmh SE 2.0 mph3.2 kmh 29.99 in1015.6 mb 0.00 in0.0 mm 0.00 in/hr0.0 mm/hr 0.00 in0.0 mm
07:20 AM 58.4°F14.7°C 56.4°F13.6°C 93% 0.7 mph SE1.1 kmh SE 5.0 mph8.0 kmh 29.99 in1015.6 mb 0.00 in0.0 mm 0.00 in/hr0.0 mm/hr 0.00 in0.0 mm
07:10 AM 58.7°F14.8°C 56.7°F13.7°C 93% 1.5 mph SE2.4 kmh SE 4.0 mph6.4 kmh 29.99 in1015.6 mb 0.00 in0.0 mm 0.00 in/hr0.0 mm/hr 0.00 in0.0 mm
07:00 AM 58.7°F14.8°C 56.7°F13.7°C 93% 2.3 mph SE3.7 kmh SE 8.0 mph12.9 kmh 29.99 in1015.6 mb 0.00 in0.0 mm 0.00 in/hr0.0 mm/hr 0.00 in0.0 mm
06:50 AM 58.8°F14.9°C 56.8°F13.8°C 93% 2.3 mph SSE3.7 kmh SSE 6.0 mph9.7 kmh 29.99 in1015.6 mb 0.00 in0.0 mm 0.00 in/hr0.0 mm/hr 0.00 in0.0 mm
06:40 AM 58.8°F14.9°C 56.8°F13.8°C 93% 2.2 mph S3.5 kmh S 7.0 mph11.3 kmh 29.99 in1015.6 mb 0.00 in0.0 mm 0.00 in/hr0.0 mm/hr 0.00 in0.0 mm
06:30 AM 58.8°F14.9°C 56.7°F13.7°C 93% 0.3 mph SE0.5 kmh SE 2.0 mph3.2 kmh 29.98 in1015.2 mb 0.00 in0.0 mm 0.00 in/hr0.0 mm/hr 0.00 in0.0 mm
06:20 AM 58.4°F14.7°C 56.7°F13.7°C 94% 0.1 mph SE0.2 kmh SE -- 29.99 in1015.6 mb 0.00 in0.0 mm 0.00 in/hr0.0 mm/hr 0.00 in0.0 mm
06:10 AM 58.5°F14.7°C 56.8°F13.8°C 94% Calm Calm 1.0 mph1.6 kmh 29.98 in1015.2 mb 0.00 in0.0 mm 0.00 in/hr0.0 mm/hr 0.00 in0.0 mm
06:00 AM 58.4°F14.7°C 56.7°F13.7°C 94% Calm Calm -- 29.99 in1015.6 mb 0.00 in0.0 mm 0.00 in/hr0.0 mm/hr 0.00 in0.0 mm
05:50 AM 58.5°F14.7°C 56.8°F13.8°C 94% Calm Calm 1.0 mph1.6 kmh 29.99 in1015.6 mb 0.00 in0.0 mm 0.00 in/hr0.0 mm/hr 0.00 in0.0 mm
05:40 AM 58.6°F14.8°C 56.9°F13.8°C 94% Calm Calm 5.0 mph8.0 kmh 29.99 in1015.6 mb 0.00 in0.0 mm 0.00 in/hr0.0 mm/hr 0.00 in0.0 mm
05:30 AM 58.6°F14.8°C 56.9°F13.8°C 94% 2.1 mph SE3.4 kmh SE 4.0 mph6.4 kmh 29.99 in1015.6 mb 0.00 in0.0 mm 0.00 in/hr0.0 mm/hr 0.00 in0.0 mm
05:20 AM 58.6°F14.8°C 56.9°F13.8°C 94% 2.9 mph SE4.7 kmh SE 5.0 mph8.0 kmh 29.99 in1015.6 mb 0.00 in0.0 mm 0.00 in/hr0.0 mm/hr 0.00 in0.0 mm
05:10 AM 58.7°F14.8°C 57.0°F13.9°C 94% 2.8 mph SE4.5 kmh SE 4.0 mph6.4 kmh 29.99 in1015.6 mb 0.00 in0.0 mm 0.00 in/hr0.0 mm/hr 0.00 in0.0 mm
05:00 AM 58.8°F14.9°C 57.1°F13.9°C 94% 2.9 mph SE4.7 kmh SE 8.0 mph12.9 kmh 29.99 in1015.6 mb 0.00 in0.0 mm 0.00 in/hr0.0 mm/hr 0.00 in0.0 mm
04:50 AM 58.9°F14.9°C 56.9°F13.8°C 93% 2.2 mph SSE3.5 kmh SSE 4.0 mph6.4 kmh 29.99 in1015.6 mb 0.00 in0.0 mm 0.00 in/hr0.0 mm/hr 0.00 in0.0 mm
04:40 AM 59.1°F15.1°C 57.1°F13.9°C 93% 3.7 mph SSE6.0 kmh SSE 8.0 mph12.9 kmh 29.99 in1015.6 mb 0.00 in0.0 mm 0.00 in/hr0.0 mm/hr 0.00 in0.0 mm
04:30 AM 59.2°F15.1°C 57.1°F13.9°C 93% 3.4 mph S5.5 kmh S 8.0 mph12.9 kmh 29.99 in1015.6 mb 0.00 in0.0 mm 0.00 in/hr0.0 mm/hr 0.00 in0.0 mm
04:20 AM 59.2°F15.1°C 57.2°F14.0°C 93% 3.9 mph SSE6.3 kmh SSE 9.0 mph14.5 kmh 29.99 in1015.6 mb 0.00 in0.0 mm 0.00 in/hr0.0 mm/hr 0.00 in0.0 mm
04:10 AM 59.1°F15.1°C 57.4°F14.1°C 94% 4.7 mph SE7.6 kmh SE 9.0 mph14.5 kmh 29.99 in1015.6 mb 0.00 in0.0 mm 0.00 in/hr0.0 mm/hr 0.00 in0.0 mm
04:00 AM 59.1°F15.1°C 57.4°F14.1°C 94% 3.9 mph SE6.3 kmh SE 7.0 mph11.3 kmh 30.00 in1015.9 mb 0.00 in0.0 mm 0.00 in/hr0.0 mm/hr 0.00 in0.0 mm
03:50 AM 59.2°F15.1°C 57.5°F14.2°C 94% 0.6 mph S1.0 kmh S 4.0 mph6.4 kmh 30.00 in1015.9 mb 0.00 in0.0 mm 0.00 in/hr0.0 mm/hr 0.00 in0.0 mm
03:40 AM 59.3°F15.2°C 57.3°F14.1°C 93% 0.2 mph S0.3 kmh S 1.0 mph1.6 kmh 30.00 in1015.9 mb 0.00 in0.0 mm 0.00 in/hr0.0 mm/hr 0.00 in0.0 mm
03:30 AM 59.7°F15.4°C 57.6°F14.2°C 93% 1.1 mph S1.8 kmh S 4.0 mph6.4 kmh 30.00 in1015.9 mb 0.00 in0.0 mm 0.00 in/hr0.0 mm/hr 0.00 in0.0 mm
03:20 AM 59.8°F15.4°C 57.8°F14.3°C 93% 1.7 mph SSE2.7 kmh SSE 7.0 mph11.3 kmh 30.00 in1015.9 mb 0.00 in0.0 mm 0.00 in/hr0.0 mm/hr 0.00 in0.0 mm
03:10 AM 59.9°F15.5°C 57.9°F14.4°C 93% 2.9 mph SSE4.7 kmh SSE 7.0 mph11.3 kmh 30.00 in1015.9 mb 0.00 in0.0 mm 0.00 in/hr0.0 mm/hr 0.00 in0.0 mm
03:00 AM 59.9°F15.5°C 57.9°F14.4°C 93% 5.1 mph SSE8.2 kmh SSE 7.0 mph11.3 kmh 30.00 in1015.9 mb 0.00 in0.0 mm 0.00 in/hr0.0 mm/hr 0.00 in0.0 mm
02:50 AM 59.8°F15.4°C 57.8°F14.3°C 93% 3.5 mph S5.6 kmh S 7.0 mph11.3 kmh 30.01 in1016.3 mb 0.00 in0.0 mm 0.00 in/hr0.0 mm/hr 0.00 in0.0 mm
02:40 AM 59.7°F15.4°C 57.7°F14.3°C 93% 2.6 mph S4.2 kmh S 5.0 mph8.0 kmh 30.01 in1016.3 mb 0.00 in0.0 mm 0.00 in/hr0.0 mm/hr 0.00 in0.0 mm
02:30 AM 59.7°F15.4°C 57.7°F14.3°C 93% 5.3 mph SSE8.5 kmh SSE 8.0 mph12.9 kmh 30.02 in1016.6 mb 0.00 in0.0 mm 0.00 in/hr0.0 mm/hr 0.00 in0.0 mm
02:20 AM 59.8°F15.4°C 57.8°F14.3°C 93% 3.8 mph SSE6.1 kmh SSE 6.0 mph9.7 kmh 30.02 in1016.6 mb 0.00 in0.0 mm 0.00 in/hr0.0 mm/hr 0.00 in0.0 mm
02:10 AM 59.8°F15.4°C 57.8°F14.3°C 93% 0.4 mph SSE0.6 kmh SSE 2.0 mph3.2 kmh 30.02 in1016.6 mb 0.00 in0.0 mm 0.00 in/hr0.0 mm/hr 0.00 in0.0 mm
02:00 AM 59.8°F15.4°C 57.8°F14.3°C 93% 0.5 mph S0.8 kmh S 3.0 mph4.8 kmh 30.03 in1016.9 mb 0.00 in0.0 mm 0.00 in/hr0.0 mm/hr 0.00 in0.0 mm
01:50 AM 59.7°F15.4°C 57.7°F14.3°C 93% 0.2 mph S0.3 kmh S -- 30.03 in1016.9 mb 0.00 in0.0 mm 0.00 in/hr0.0 mm/hr 0.00 in0.0 mm
01:40 AM 59.8°F15.4°C 57.8°F14.3°C 93% 0.6 mph S1.0 kmh S 5.0 mph8.0 kmh 30.03 in1016.9 mb 0.00 in0.0 mm 0.00 in/hr0.0 mm/hr 0.00 in0.0 mm
01:30 AM 59.7°F15.4°C 57.7°F14.3°C 93% 1.0 mph S1.6 kmh S 4.0 mph6.4 kmh 30.03 in1016.9 mb 0.00 in0.0 mm 0.00 in/hr0.0 mm/hr 0.00 in0.0 mm
01:20 AM 59.7°F15.4°C 57.7°F14.3°C 93% 2.0 mph S3.2 kmh S 3.0 mph4.8 kmh 30.02 in1016.6 mb 0.00 in0.0 mm 0.00 in/hr0.0 mm/hr 0.00 in0.0 mm
01:10 AM 59.6°F15.3°C 57.6°F14.2°C 93% 0.1 mph S0.2 kmh S 1.0 mph1.6 kmh 30.03 in1016.9 mb 0.00 in0.0 mm 0.00 in/hr0.0 mm/hr 0.00 in0.0 mm
01:00 AM 59.8°F15.4°C 57.8°F14.3°C 93% Calm Calm -- 30.03 in1016.9 mb 0.00 in0.0 mm 0.00 in/hr0.0 mm/hr 0.00 in0.0 mm
12:50 AM 60.1°F15.6°C 57.8°F14.3°C 92% Calm Calm 1.0 mph1.6 kmh 30.03 in1016.9 mb 0.00 in0.0 mm 0.00 in/hr0.0 mm/hr 0.00 in0.0 mm
12:40 AM 60.3°F15.7°C 58.0°F14.4°C 92% 1.3 mph S2.1 kmh S 3.0 mph4.8 kmh 30.03 in1016.9 mb 0.00 in0.0 mm 0.00 in/hr0.0 mm/hr 0.00 in0.0 mm
12:30 AM 60.5°F15.8°C 58.2°F14.6°C 92% 0.7 mph SSW1.1 kmh SSW -- 30.03 in1016.9 mb 0.00 in0.0 mm 0.00 in/hr0.0 mm/hr 0.00 in0.0 mm
12:20 AM 60.4°F15.8°C 58.0°F14.4°C 92% 3.2 mph SSW5.1 kmh SSW 4.0 mph6.4 kmh 30.03 in1016.9 mb 0.00 in0.0 mm 0.00 in/hr0.0 mm/hr 0.00 in0.0 mm
12:10 AM 60.1°F15.6°C 58.1°F14.5°C 93% 0.7 mph S1.1 kmh S 6.0 mph9.7 kmh 30.03 in1016.9 mb 0.00 in0.0 mm 0.00 in/hr0.0 mm/hr 0.00 in0.0 mm
12:00 AM 60.0°F15.6°C 58.0°F14.4°C 93% 0.9 mph SSE1.4 kmh SSE 1.0 mph1.6 kmh 30.03 in1016.9 mb 0.00 in0.0 mm 0.00 in/hr0.0 mm/hr 0.00 in0.0 mm